Time;durP1;ratioP1;P1;durP2;ratioP2;P2;SDS_P1;SDS_P2;PMS_P1;PMS_P2;Temp;Humidity;BMP_temperature;BMP_pressure;BME280_temperature;BME280_humidity;BME280_pressure;Samples;Min_cycle;Max_cycle;Signal;HPM_P1;HPM_P2
2023/01/13 00:00:54;;;;;;;15.35;10.30;;;;;;;16.47;59.01;100170.34;5034990;28;20491;-66
2023/01/13 00:03:20;;;;;;;20.02;10.90;;;;;;;16.48;58.90;100164.16;5034357;28;20026;-66
2023/01/13 00:05:45;;;;;;;16.80;10.10;;;;;;;16.48;58.82;100165.00;5034752;28;20467;-66
2023/01/13 00:08:11;;;;;;;18.38;10.50;;;;;;;16.48;58.90;100158.88;5029238;28;20017;-66
2023/01/13 00:10:37;;;;;;;16.08;10.88;;;;;;;16.47;58.69;100162.44;5034844;28;20026;-66
2023/01/13 00:13:03;;;;;;;16.48;10.02;;;;;;;16.46;59.05;100161.56;5034632;28;20118;-66
2023/01/13 00:15:29;;;;;;;14.65;10.48;;;;;;;16.48;58.81;100156.25;5033449;28;20550;-66
2023/01/13 00:17:56;;;;;;;16.27;10.60;;;;;;;16.49;58.73;100157.97;5027944;28;20052;-67
2023/01/13 00:20:21;;;;;;;14.25;9.63;;;;;;;16.49;58.91;100156.22;5034263;28;20034;-66
2023/01/13 00:22:47;;;;;;;13.25;8.90;;;;;;;16.49;58.84;100144.78;5034448;28;20044;-66
2023/01/13 00:25:12;;;;;;;15.60;11.38;;;;;;;16.49;58.79;100152.69;5034138;28;20025;-66
2023/01/13 00:27:38;;;;;;;16.30;9.98;;;;;;;16.51;58.65;100153.50;5029948;28;20538;-67
2023/01/13 00:30:06;;;;;;;14.15;9.32;;;;;;;16.49;58.95;100150.94;5029640;28;20491;-66
2023/01/13 00:32:32;;;;;;;13.95;9.13;;;;;;;16.49;58.73;100142.16;5033191;28;20502;-66
2023/01/13 00:34:57;;;;;;;16.45;10.35;;;;;;;16.50;58.97;100143.88;5034051;28;20030;-67
2023/01/13 00:37:23;;;;;;;14.50;9.65;;;;;;;16.50;58.63;100142.13;5032925;28;20018;-66
2023/01/13 00:39:52;;;;;;;15.57;9.60;;;;;;;16.49;58.98;100143.03;5034309;28;20479;-66
2023/01/13 00:45:03;;;;;;;12.65;9.25;;;;;;;16.48;58.97;100127.28;5034207;28;20029;-66
2023/01/13 00:47:28;;;;;;;14.07;9.02;;;;;;;16.49;58.82;100129.00;5031758;28;20041;-67
2023/01/13 00:49:54;;;;;;;13.15;8.88;;;;;;;16.49;58.60;100131.63;5021460;28;20033;-67
2023/01/13 00:52:20;;;;;;;14.85;9.23;;;;;;;16.49;59.00;100132.50;5032549;28;20037;-66
2023/01/13 00:54:45;;;;;;;15.43;9.60;;;;;;;16.49;58.56;100134.25;5033851;28;20030;-67
2023/01/13 00:57:10;;;;;;;16.60;9.63;;;;;;;16.49;58.77;100123.72;5032818;28;20410;-66
2023/01/13 00:59:36;;;;;;;15.13;9.48;;;;;;;16.51;58.79;100127.16;5030506;28;20448;-66
2023/01/13 01:02:01;;;;;;;13.45;9.63;;;;;;;16.49;58.95;100123.72;5033735;28;20025;-66
2023/01/13 01:04:27;;;;;;;14.98;9.02;;;;;;;16.48;58.91;100129.91;5026713;28;20503;-66
2023/01/13 01:06:52;;;;;;;13.30;9.32;;;;;;;16.47;58.74;100130.81;5033810;28;20041;-66
2023/01/13 01:09:18;;;;;;;12.93;8.80;;;;;;;16.48;58.90;100137.81;5029337;28;20075;-67
2023/01/13 01:11:43;;;;;;;13.00;8.20;;;;;;;16.49;58.66;100150.06;5033401;28;20052;-66
2023/01/13 01:14:11;;;;;;;12.30;8.30;;;;;;;16.46;58.86;100144.91;5033207;28;20037;-66
2023/01/13 01:16:38;;;;;;;12.65;8.57;;;;;;;16.48;58.61;100140.44;5033434;28;20017;-65
2023/01/13 01:19:04;;;;;;;13.07;8.43;;;;;;;16.48;58.63;100137.81;5027490;28;20112;-66
2023/01/13 01:21:31;;;;;;;14.60;8.25;;;;;;;16.48;58.45;100135.19;5033203;28;20457;-66
2023/01/13 01:23:59;;;;;;;11.77;8.40;;;;;;;16.50;58.73;100125.44;5033364;28;20056;-66
2023/01/13 01:26:27;;;;;;;11.55;8.65;;;;;;;16.51;58.61;100121.88;5033339;28;20025;-66
2023/01/13 01:28:52;;;;;;;12.70;7.80;;;;;;;16.50;58.60;100120.16;5026568;28;20048;-66
2023/01/13 01:31:26;;;;;;;12.85;8.55;;;;;;;16.49;58.87;100135.13;5033657;28;20033;-66
2023/01/13 01:33:53;;;;;;;12.38;7.60;;;;;;;16.50;58.68;100141.25;5033104;28;20028;-65
2023/01/13 01:36:20;;;;;;;12.98;8.43;;;;;;;16.49;58.52;100143.03;5026670;28;20034;-66
2023/01/13 01:38:47;;;;;;;12.93;8.10;;;;;;;16.48;58.62;100153.63;5021450;28;20018;-66
2023/01/13 01:41:33;;;;;;;12.40;7.35;;;;;;;16.48;58.56;100141.28;5033286;28;20031;-66
2023/01/13 01:44:06;;;;;;;11.87;7.30;;;;;;;16.50;58.44;100130.72;5032607;28;20021;-66
2023/01/13 01:46:31;;;;;;;13.52;8.15;;;;;;;16.51;58.56;100128.03;5032781;28;20530;-66
2023/01/13 01:49:20;;;;;;;11.55;7.65;;;;;;;16.51;58.51;100127.16;5019110;28;20070;-66
2023/01/13 01:51:48;;;;;;;12.23;7.00;;;;;;;16.51;58.50;100132.44;5021596;28;20399;-66
2023/01/13 01:54:30;;;;;;;13.10;8.23;;;;;;;16.48;58.62;100143.06;5031191;28;20121;-66
2023/01/13 01:56:56;;;;;;;11.25;7.13;;;;;;;16.50;58.59;100133.34;5032727;28;20072;-66
2023/01/13 01:59:24;;;;;;;14.25;7.70;;;;;;;16.50;58.77;100146.53;5031670;28;20033;-66
2023/01/13 02:01:49;;;;;;;12.23;7.03;;;;;;;16.51;58.46;100142.97;5032941;28;20017;-65
2023/01/13 02:04:24;;;;;;;10.07;7.10;;;;;;;16.51;58.38;100132.44;5032696;28;20479;-66
2023/01/13 02:06:52;;;;;;;11.35;7.28;;;;;;;16.51;58.38;100140.34;5031373;28;20113;-66
2023/01/13 02:09:17;;;;;;;11.32;7.28;;;;;;;16.50;58.31;100135.97;5032588;28;20029;-66
2023/01/13 02:14:29;;;;;;;11.90;6.93;;;;;;;16.49;58.41;100134.25;5032524;28;20067;-66
2023/01/13 02:17:25;;;;;;;10.90;7.25;;;;;;;16.49;58.46;100131.63;5031962;28;20017;-66
2023/01/13 02:19:54;;;;;;;11.30;6.75;;;;;;;16.51;58.71;100127.16;5032468;28;20029;-66
2023/01/13 02:22:45;;;;;;;11.27;7.20;;;;;;;16.51;58.30;100127.16;5030865;28;20044;-66
2023/01/13 02:25:29;;;;;;;10.13;6.82;;;;;;;16.51;58.46;100127.16;5032238;28;20026;-67
2023/01/13 02:28:18;;;;;;;10.13;5.85;;;;;;;16.53;58.69;100114.81;5031926;28;20029;-66
2023/01/13 02:33:34;;;;;;;9.25;6.13;;;;;;;16.53;58.48;100120.09;5029710;28;20136;-66
2023/01/13 02:36:18;;;;;;;11.05;5.95;;;;;;;16.50;58.64;100126.31;5032056;28;20077;-66
2023/01/13 02:38:56;;;;;;;10.15;6.57;;;;;;;16.47;58.28;100121.13;5032288;28;20035;-66
2023/01/13 02:45:00;;;;;;;8.65;5.65;;;;;;;16.50;58.29;100117.53;4971218;28;20271;-66
2023/01/13 02:47:29;;;;;;;12.95;7.43;;;;;;;16.48;58.19;100124.63;4969215;28;20050;-66
2023/01/13 02:50:01;;;;;;;9.48;5.93;;;;;;;16.49;58.34;100113.19;4970776;28;20081;-66
2023/01/13 02:52:40;;;;;;;9.32;6.22;;;;;;;16.51;58.60;100121.88;4970897;28;20042;-66
2023/01/13 02:55:20;;;;;;;9.52;5.65;;;;;;;16.50;58.47;100114.91;4970585;28;20585;-67
2023/01/13 02:57:47;;;;;;;9.90;6.00;;;;;;;16.49;58.34;100113.19;4958011;28;20027;-66
2023/01/13 03:00:15;;;;;;;9.13;5.72;;;;;;;16.49;58.22;100105.28;4954857;28;20521;-66
2023/01/13 03:02:41;;;;;;;10.32;6.15;;;;;;;16.47;58.24;100101.84;4970555;28;20038;-67
2023/01/13 03:05:06;;;;;;;9.60;5.57;;;;;;;16.49;58.17;100107.91;4970822;28;20034;-67
2023/01/13 03:07:52;;;;;;;11.82;6.30;;;;;;;16.51;58.44;100095.53;4970697;28;20046;-66
2023/01/13 03:10:38;;;;;;;9.70;5.82;;;;;;;16.52;58.20;100092.03;4955016;28;20038;-67
2023/01/13 03:15:54;;;;;;;9.13;5.20;;;;;;;16.50;58.17;100093.81;5866728;22;20049;-65
2023/01/13 03:18:31;;;;;;;11.00;5.50;;;;;;;16.53;58.47;100093.75;5054114;23;20053;-64
2023/01/13 03:21:11;;;;;;;8.10;4.72;;;;;;;16.49;58.18;100092.09;5013961;28;20022;-66
2023/01/13 03:23:49;;;;;;;8.38;4.93;;;;;;;16.51;58.03;100083.25;5012193;28;20025;-67
2023/01/13 03:26:50;;;;;;;7.40;4.63;;;;;;;16.50;58.35;100089.44;5009574;28;20439;-65
2023/01/13 03:29:36;;;;;;;7.57;4.70;;;;;;;16.51;58.29;100091.16;5002809;28;20626;-68
2023/01/13 03:32:08;;;;;;;7.53;5.05;;;;;;;16.53;58.33;100082.34;5015880;28;20064;-66
2023/01/13 03:34:40;;;;;;;9.93;5.07;;;;;;;16.51;58.22;100082.38;5015478;28;20041;-66
2023/01/13 03:37:07;;;;;;;8.68;5.25;;;;;;;16.50;58.33;100083.28;5015870;28;20029;-66
2023/01/13 03:39:38;;;;;;;9.75;5.47;;;;;;;16.53;58.15;100063.88;5015683;28;20030;-66
2023/01/13 03:42:08;;;;;;;7.50;4.70;;;;;;;16.54;58.12;100066.47;5015788;28;20026;-67
2023/01/13 03:44:37;;;;;;;8.32;4.95;;;;;;;16.50;58.00;100067.47;5015766;28;20479;-67
2023/01/13 03:47:16;;;;;;;8.18;4.80;;;;;;;16.51;57.99;100063.94;5015124;28;20037;-65
2023/01/13 03:49:48;;;;;;;7.95;4.90;;;;;;;16.53;57.95;100067.41;5015668;28;20026;-66
2023/01/13 03:52:36;;;;;;;8.02;4.80;;;;;;;16.52;58.08;100065.69;5012791;28;20499;-66
2023/01/13 03:55:15;;;;;;;7.50;4.60;;;;;;;16.50;57.89;100062.22;5007108;28;20408;-66
2023/01/13 03:57:56;;;;;;;7.32;4.95;;;;;;;16.52;58.09;100068.31;5015448;28;20045;-66
2023/01/13 04:00:27;;;;;;;8.93;4.63;;;;;;;16.53;58.15;100061.25;5015427;28;20022;-66
2023/01/13 04:03:13;;;;;;;6.40;4.22;;;;;;;16.53;57.91;100063.88;5013701;28;20022;-66
2023/01/13 04:05:42;;;;;;;6.60;4.67;;;;;;;16.51;57.97;100063.94;5014758;28;20150;-67
2023/01/13 04:08:21;;;;;;;9.95;4.80;;;;;;;16.51;57.83;100074.47;5014838;28;20356;-66
2023/01/13 04:11:11;;;;;;;7.78;4.90;;;;;;;16.51;58.11;100071.84;5015096;28;20226;-66
2023/01/13 04:13:39;;;;;;;7.03;4.35;;;;;;;16.51;57.82;100063.94;5014645;28;20060;-67
2023/01/13 04:16:06;;;;;;;9.02;4.82;;;;;;;16.51;58.00;100059.53;5015071;28;20021;-67
2023/01/13 04:18:36;;;;;;;7.78;4.32;;;;;;;16.50;58.06;100071.00;5014720;28;20049;-66
2023/01/13 04:21:03;;;;;;;7.43;4.15;;;;;;;16.52;58.05;100076.22;5014897;28;20034;-66
2023/01/13 04:23:28;;;;;;;7.25;4.20;;;;;;;16.54;58.20;100074.38;5014330;28;20389;-66
2023/01/13 04:25:54;;;;;;;7.53;4.32;;;;;;;16.50;57.93;100076.25;5015056;28;20029;-66
2023/01/13 04:28:20;;;;;;;6.88;4.35;;;;;;;16.51;57.76;100074.47;5014911;28;20030;-68
2023/01/13 04:30:46;;;;;;;7.85;4.60;;;;;;;16.52;57.98;100076.22;5015068;28;20030;-67
2023/01/13 04:33:14;;;;;;;6.45;4.25;;;;;;;16.52;57.76;100084.13;5015135;28;20115;-66
2023/01/13 04:35:40;;;;;;;7.05;4.47;;;;;;;16.50;57.90;100075.38;5015079;28;20442;-67
2023/01/13 04:38:14;;;;;;;7.47;4.20;;;;;;;16.52;58.13;100076.22;5014861;28;20464;-67
2023/01/13 04:40:40;;;;;;;8.40;4.28;;;;;;;16.51;57.86;100077.09;5003510;28;20422;-66
2023/01/13 04:43:06;;;;;;;7.85;4.65;;;;;;;16.53;58.07;100072.66;5014948;28;20091;-67
2023/01/13 04:45:32;;;;;;;8.13;4.15;;;;;;;16.50;58.16;100072.75;5014069;28;20446;-67
2023/01/13 04:47:58;;;;;;;5.85;3.65;;;;;;;16.50;57.71;100078.91;5014391;28;20038;-67
2023/01/13 04:50:24;;;;;;;7.78;4.20;;;;;;;16.50;57.79;100088.56;5010679;28;20064;-66
2023/01/13 04:52:51;;;;;;;6.70;4.03;;;;;;;16.49;57.90;100078.94;4999709;28;20058;-67
2023/01/13 04:55:17;;;;;;;8.55;4.70;;;;;;;16.49;57.98;100092.09;5011227;28;20088;-67
2023/01/13 04:57:43;;;;;;;6.45;3.90;;;;;;;16.51;57.67;100095.53;5014676;28;20473;-66
2023/01/13 05:00:11;;;;;;;6.90;3.78;;;;;;;16.50;57.98;100091.19;5013890;28;20084;-66
2023/01/13 05:02:36;;;;;;;7.22;4.40;;;;;;;16.49;57.89;100094.75;5014653;28;20026;-67
2023/01/13 05:05:02;;;;;;;7.97;4.32;;;;;;;16.48;57.87;100116.72;5014796;28;20034;-66
2023/01/13 05:07:27;;;;;;;6.93;3.70;;;;;;;16.53;57.81;100121.84;5016007;28;20036;-66
2023/01/13 05:09:53;;;;;;;6.88;4.18;;;;;;;16.50;57.88;100128.06;5014310;28;20080;-66
2023/01/13 05:17:47;;;;;;;7.22;3.95;;;;;;;16.50;57.97;100130.72;5014076;28;20056;-67
2023/01/13 05:20:13;;;;;;;6.13;3.38;;;;;;;16.49;57.82;100131.63;5014175;28;20029;-66
2023/01/13 05:25:23;;;;;;;6.32;3.55;;;;;;;16.51;57.99;100121.88;5013749;28;20113;-66
2023/01/13 05:27:51;;;;;;;7.22;4.25;;;;;;;16.50;58.00;100121.03;5013719;28;20018;-66
2023/01/13 05:30:18;;;;;;;6.13;3.83;;;;;;;16.49;58.07;100124.59;5013700;28;20042;-66
2023/01/13 05:32:43;;;;;;;6.88;4.07;;;;;;;16.48;57.71;100125.47;5013744;28;20458;-67
2023/01/13 05:35:09;;;;;;;6.68;3.72;;;;;;;16.49;57.95;100118.44;5012634;28;20129;-67
2023/01/13 05:37:34;;;;;;;6.88;3.33;;;;;;;16.50;57.88;100125.44;5013674;28;20030;-66
2023/01/13 05:45:29;;;;;;;7.10;3.40;;;;;;;16.47;57.71;100130.81;5013522;28;20032;-66
2023/01/13 05:47:55;;;;;;;7.55;3.72;;;;;;;16.49;58.06;100136.91;5013402;28;20092;-67
2023/01/13 05:50:21;;;;;;;6.68;3.67;;;;;;;16.50;57.76;100141.25;5013335;28;20125;-66
2023/01/13 05:52:47;;;;;;;6.38;3.22;;;;;;;16.51;57.72;100132.44;5012036;28;20030;-66
2023/01/13 05:55:13;;;;;;;6.45;3.40;;;;;;;16.51;57.99;100132.44;5013801;28;20017;-66
2023/01/13 05:57:39;;;;;;;5.65;3.45;;;;;;;16.51;57.88;100135.06;5013025;28;20014;-68
2023/01/13 06:00:05;;;;;;;6.22;3.67;;;;;;;16.50;57.74;100125.44;5013335;28;20377;-66
2023/01/13 06:02:30;;;;;;;7.35;4.28;;;;;;;16.48;58.06;100128.13;5013438;28;20022;-66
2023/01/13 06:04:56;;;;;;;6.20;3.60;;;;;;;16.52;57.73;100128.91;5013619;28;20028;-67
2023/01/13 06:07:21;;;;;;;7.18;3.47;;;;;;;16.50;57.92;100130.72;5012265;28;20442;-65
2023/01/13 06:09:47;;;;;;;6.10;3.38;;;;;;;16.50;58.14;100133.34;5013415;28;20446;-65
2023/01/13 06:12:13;;;;;;;6.00;3.58;;;;;;;16.50;57.81;100135.97;5012950;28;20036;-65
2023/01/13 06:14:41;;;;;;;5.80;3.50;;;;;;;16.48;57.82;100133.38;5013529;28;20030;-65
2023/01/13 06:17:08;;;;;;;4.78;3.03;;;;;;;16.51;58.09;100137.69;5013327;28;20045;-65
2023/01/13 06:19:33;;;;;;;7.78;3.85;;;;;;;16.52;58.15;100144.72;5013102;28;20080;-65
2023/01/13 06:22:21;;;;;;;6.50;3.85;;;;;;;16.51;57.87;100145.59;5012386;28;20026;-64
2023/01/13 06:24:49;;;;;;;5.25;3.42;;;;;;;16.52;57.83;100144.72;4992883;28;20096;-65
2023/01/13 06:27:15;;;;;;;9.13;3.70;;;;;;;16.52;57.74;100144.72;5010237;28;20048;-66
2023/01/13 06:29:41;;;;;;;7.30;3.88;;;;;;;16.49;57.63;100144.78;5007003;28;20026;-65
2023/01/13 06:32:40;;;;;;;5.97;3.17;;;;;;;16.53;58.17;100149.06;4993533;28;20027;-65
2023/01/13 06:35:10;;;;;;;6.40;3.13;;;;;;;16.51;57.94;100153.50;4980912;28;20050;-66
2023/01/13 06:37:37;;;;;;;6.32;3.30;;;;;;;16.51;57.76;100164.03;5001071;28;20072;-65
2023/01/13 06:40:06;;;;;;;5.20;3.05;;;;;;;16.53;58.06;100154.34;5004586;28;20026;-66
2023/01/13 06:45:20;;;;;;;5.68;3.60;;;;;;;16.52;57.99;100165.78;5009312;28;20053;-67
2023/01/13 06:47:45;;;;;;;6.38;3.63;;;;;;;16.52;57.74;100163.16;5004985;28;20030;-66
2023/01/13 06:50:11;;;;;;;6.70;3.17;;;;;;;16.55;57.69;100165.69;4993211;28;20501;-65
2023/01/13 06:52:36;;;;;;;6.63;3.22;;;;;;;16.54;57.79;100174.50;5007487;28;20029;-69
2023/01/13 06:55:02;;;;;;;5.60;3.50;;;;;;;16.54;57.86;100171.00;4996674;28;20415;-65
2023/01/13 06:57:27;;;;;;;6.43;3.08;;;;;;;16.52;57.95;100178.97;5007789;28;20400;-65
2023/01/13 06:59:53;;;;;;;6.32;3.10;;;;;;;16.53;57.95;100180.69;4998776;28;20025;-65
2023/01/13 07:02:18;;;;;;;5.00;2.88;;;;;;;16.51;58.00;100190.38;5000128;28;20061;-65
2023/01/13 07:04:45;;;;;;;6.25;3.17;;;;;;;16.54;57.88;100181.53;5009199;28;20521;-65
2023/01/13 07:07:11;;;;;;;5.80;3.25;;;;;;;16.51;57.88;100180.72;4995804;28;20027;-65
2023/01/13 07:09:37;;;;;;;5.45;3.10;;;;;;;16.53;57.45;100183.31;5009468;28;20388;-65
2023/01/13 07:12:03;;;;;;;5.88;3.03;;;;;;;16.53;57.85;100182.44;5003566;28;20029;-65
2023/01/13 07:17:12;;;;;;;6.35;3.30;;;;;;;16.50;57.66;100193.94;4996103;28;20153;-65
2023/01/13 07:19:37;;;;;;;5.18;3.15;;;;;;;16.51;57.51;100201.81;5009957;28;20554;-65
2023/01/13 07:22:03;;;;;;;6.38;3.38;;;;;;;16.53;57.78;100201.75;5003963;28;20025;-64
2023/01/13 07:24:28;;;;;;;8.75;3.25;;;;;;;16.52;57.66;100202.69;5004278;28;20028;-65
2023/01/13 07:26:54;;;;;;;4.75;2.67;;;;;;;16.51;57.81;100208.81;4996903;28;20026;-65
2023/01/13 07:29:19;;;;;;;5.88;3.13;;;;;;;16.51;57.75;100200.94;5011224;28;20028;-65
2023/01/13 07:31:45;;;;;;;6.30;3.00;;;;;;;16.52;57.65;100207.94;5006389;28;20096;-65
2023/01/13 07:34:10;;;;;;;5.70;2.97;;;;;;;16.51;57.53;100206.19;5001780;28;20037;-65
2023/01/13 07:36:36;;;;;;;4.93;2.80;;;;;;;16.50;57.75;100215.00;5002794;28;20509;-65
2023/01/13 07:39:02;;;;;;;6.07;2.78;;;;;;;16.51;57.51;100216.72;5000626;28;20076;-66
2023/01/13 07:44:12;;;;;;;5.78;3.17;;;;;;;16.53;57.87;100225.47;4992747;28;20099;-65
2023/01/13 07:46:38;;;;;;;6.05;2.85;;;;;;;16.51;57.65;100235.19;4992576;28;20455;-65
2023/01/13 07:49:04;;;;;;;6.57;2.80;;;;;;;16.50;57.56;100236.97;5002782;28;20033;-65
2023/01/13 07:51:30;;;;;;;4.50;2.42;;;;;;;16.50;57.36;100246.63;5012026;28;20022;-65
2023/01/13 07:53:55;;;;;;;5.80;2.90;;;;;;;16.52;57.83;100242.19;5012024;28;20029;-65
2023/01/13 07:56:21;;;;;;;6.20;3.15;;;;;;;16.51;57.70;100243.06;5011004;28;20034;-65
2023/01/13 07:58:49;;;;;;;5.13;2.90;;;;;;;16.50;57.80;100251.91;5015524;28;20056;-65
2023/01/13 08:01:16;;;;;;;5.10;2.72;;;;;;;16.53;57.46;100250.94;5015801;28;20073;-65
2023/01/13 08:03:42;;;;;;;6.20;2.67;;;;;;;16.51;57.54;100237.81;5015900;28;20026;-65
2023/01/13 08:06:09;;;;;;;5.60;2.85;;;;;;;16.52;57.65;100250.09;5015708;28;20168;-65
2023/01/13 08:08:34;;;;;;;5.82;3.17;;;;;;;16.48;57.39;100259.00;5015400;28;20567;-65
2023/01/13 08:11:05;;;;;;;8.27;2.80;;;;;;;16.51;57.75;100265.03;5015684;28;20124;-65
2023/01/13 08:13:30;;;;;;;5.88;2.53;;;;;;;16.48;57.73;100269.53;5015542;28;20053;-65
2023/01/13 08:16:02;;;;;;;6.43;2.50;;;;;;;16.49;57.68;100276.53;5015584;28;20109;-65
2023/01/13 08:18:28;;;;;;;5.65;2.70;;;;;;;16.51;57.72;100269.44;5015308;28;20038;-65
2023/01/13 08:20:53;;;;;;;5.43;2.70;;;;;;;16.49;57.48;100255.44;5015411;28;20037;-65
2023/01/13 08:23:22;;;;;;;5.80;2.28;;;;;;;16.47;57.41;100267.81;5015208;28;20406;-65
2023/01/13 08:25:48;;;;;;;5.22;2.78;;;;;;;16.48;57.82;100266.91;5015375;28;20021;-65
2023/01/13 08:28:15;;;;;;;6.05;2.78;;;;;;;16.51;57.82;100264.16;4997450;28;20036;-65
2023/01/13 08:30:42;;;;;;;4.80;2.20;;;;;;;16.51;57.63;100266.78;4995953;28;20102;-65
2023/01/13 08:33:09;;;;;;;4.60;2.42;;;;;;;16.50;57.84;100251.91;4995746;28;20046;-65
2023/01/13 08:35:36;;;;;;;5.00;2.55;;;;;;;16.51;57.51;100262.41;4995690;28;20085;-65
2023/01/13 08:38:02;;;;;;;4.80;2.53;;;;;;;16.51;57.70;100264.16;4997779;28;20554;-65
2023/01/13 08:40:27;;;;;;;5.15;2.33;;;;;;;16.50;57.78;100272.97;5015410;28;20030;-65
2023/01/13 08:42:54;;;;;;;4.30;2.30;;;;;;;16.49;57.71;100277.41;5015241;28;20510;-65
2023/01/13 08:45:20;;;;;;;6.00;3.08;;;;;;;16.51;57.53;100287.88;5015242;28;20030;-65
2023/01/13 08:47:45;;;;;;;5.22;2.63;;;;;;;16.50;57.66;100288.78;5015122;28;20067;-66
2023/01/13 08:50:11;;;;;;;4.80;2.03;;;;;;;16.50;57.39;100299.31;5014803;28;20487;-65
2023/01/13 08:52:36;;;;;;;5.15;2.05;;;;;;;16.50;57.59;100294.94;5013264;28;20037;-65
2023/01/13 08:55:03;;;;;;;4.82;2.33;;;;;;;16.51;57.78;100301.91;5015019;28;20049;-66
2023/01/13 08:57:28;;;;;;;5.70;2.40;;;;;;;16.49;57.81;100313.41;5014801;28;20042;-65
2023/01/13 08:59:54;;;;;;;5.68;2.22;;;;;;;16.51;57.70;100308.94;5000353;28;20156;-65
2023/01/13 09:02:21;;;;;;;5.05;2.20;;;;;;;16.51;57.46;100322.13;4995143;28;20041;-65
2023/01/13 09:04:48;;;;;;;6.05;2.47;;;;;;;16.52;57.84;100329.16;4995029;28;20503;-65
2023/01/13 09:07:14;;;;;;;4.47;2.10;;;;;;;16.50;57.54;100334.44;4994763;28;20230;-65
2023/01/13 09:09:40;;;;;;;4.57;2.10;;;;;;;16.50;57.42;100337.09;4995014;28;20034;-65
2023/01/13 09:14:50;;;;;;;4.05;2.20;;;;;;;16.52;57.64;100331.78;4995143;28;20105;-65
2023/01/13 09:17:15;;;;;;;6.18;2.55;;;;;;;16.53;57.45;100333.50;4994795;28;20077;-65
2023/01/13 09:19:41;;;;;;;4.60;1.85;;;;;;;16.51;57.71;100335.28;5009057;28;20034;-65
2023/01/13 09:22:09;;;;;;;4.90;1.83;;;;;;;16.51;57.49;100340.56;5014083;28;20033;-65
2023/01/13 09:24:34;;;;;;;6.20;2.35;;;;;;;16.51;57.44;100327.38;5014394;28;20372;-65
2023/01/13 09:26:59;;;;;;;4.80;2.20;;;;;;;16.50;57.51;100336.19;5006007;28;20033;-65
2023/01/13 09:29:25;;;;;;;4.78;2.17;;;;;;;16.49;57.69;100334.47;4994608;28;20037;-65
2023/01/13 09:31:50;;;;;;;5.22;2.10;;;;;;;16.49;57.70;100339.75;4994556;28;20101;-65
2023/01/13 09:37:06;;;;;;;3.92;1.83;;;;;;;16.52;57.80;100339.69;4994425;28;20028;-65
2023/01/13 09:39:33;;;;;;;3.85;2.10;;;;;;;16.53;57.67;100338.75;5004780;28;20032;-65
2023/01/13 09:45:13;;;;;;;3.67;1.80;;;;;;;16.55;57.51;100326.41;5014216;28;20029;-65
2023/01/13 09:48:00;;;;;;;4.15;1.90;;;;;;;16.51;57.67;100317.72;5014110;28;20041;-65
2023/01/13 09:50:32;;;;;;;3.38;1.88;;;;;;;16.53;57.56;100328.22;5013491;28;20160;-65
2023/01/13 09:52:59;;;;;;;5.07;1.90;;;;;;;16.53;57.69;100324.72;5000252;28;20042;-64
2023/01/13 09:55:32;;;;;;;4.95;2.05;;;;;;;16.51;57.86;100320.38;4994171;28;20030;-65
2023/01/13 09:58:00;;;;;;;3.67;1.67;;;;;;;16.52;57.94;100323.88;4994197;28;20057;-65
2023/01/13 10:00:33;;;;;;;4.75;1.80;;;;;;;16.52;57.95;100323.88;4992890;28;20030;-64
2023/01/13 10:03:00;;;;;;;4.43;1.88;;;;;;;16.52;57.58;100323.88;4994096;28;20510;-64
2023/01/13 10:05:40;;;;;;;4.22;1.80;;;;;;;16.54;57.83;100318.53;4993669;28;20023;-65
2023/01/13 10:08:16;;;;;;;4.53;2.03;;;;;;;16.55;57.47;100320.28;4994020;28;20026;-65
2023/01/13 10:10:49;;;;;;;3.58;1.60;;;;;;;16.54;57.67;100314.13;4993960;28;20034;-65
2023/01/13 10:13:19;;;;;;;4.10;1.92;;;;;;;16.53;58.01;100325.59;4993777;28;20026;-65
2023/01/13 10:16:09;;;;;;;3.70;1.67;;;;;;;16.50;57.64;100331.81;4993895;28;20134;-65
2023/01/13 10:18:52;;;;;;;3.88;2.13;;;;;;;16.53;57.87;100329.97;5013088;28;20034;-64
2023/01/13 10:21:20;;;;;;;4.38;1.85;;;;;;;16.53;57.87;100324.72;5012904;28;20056;-65
2023/01/13 10:24:01;;;;;;;3.95;1.73;;;;;;;16.52;57.80;100318.59;5012133;28;20503;-65
2023/01/13 10:26:35;;;;;;;4.03;1.70;;;;;;;16.54;57.92;100329.94;5013132;28;20029;-65
2023/01/13 10:29:00;;;;;;;3.58;2.10;;;;;;;16.55;57.85;100333.47;5013201;28;20454;-65
2023/01/13 10:31:26;;;;;;;3.55;1.85;;;;;;;16.56;57.93;100337.81;5013110;28;20026;-65
2023/01/13 10:33:59;;;;;;;3.35;1.80;;;;;;;16.55;57.61;100328.19;5012808;28;20022;-65
2023/01/13 10:36:25;;;;;;;3.30;1.63;;;;;;;16.56;57.78;100336.03;5013043;28;20618;-65
2023/01/13 10:38:51;;;;;;;3.00;1.60;;;;;;;16.55;57.68;100330.81;5012897;28;20022;-65
2023/01/13 10:41:18;;;;;;;3.55;1.45;;;;;;;16.55;57.70;100329.03;5013098;28;20053;-65
2023/01/13 10:43:56;;;;;;;3.85;2.22;;;;;;;16.56;57.84;100322.84;5012927;28;20037;-65
2023/01/13 10:46:21;;;;;;;4.45;1.60;;;;;;;16.56;57.86;100324.66;5013130;28;20034;-65
2023/01/13 10:48:57;;;;;;;4.30;1.92;;;;;;;16.60;57.92;100331.53;5012795;28;20041;-65
2023/01/13 10:51:27;;;;;;;3.25;1.80;;;;;;;16.58;57.97;100326.31;5012967;28;20041;-65
2023/01/13 10:54:00;;;;;;;3.45;1.90;;;;;;;16.58;57.53;100323.69;5013171;28;20080;-65
2023/01/13 10:56:31;;;;;;;4.88;2.20;;;;;;;16.58;57.84;100321.06;5012985;28;20033;-65
2023/01/13 10:59:22;;;;;;;4.72;2.90;;;;;;;16.57;58.02;100319.31;5011945;28;20034;-67
2023/01/13 11:02:15;;;;;;;6.30;3.08;;;;;;;16.59;57.87;100325.41;5009741;28;20021;-65
2023/01/13 11:04:52;;;;;;;5.88;3.42;;;;;;;16.58;57.66;100321.06;5012970;28;20061;-65
2023/01/13 11:07:44;;;;;;;8.70;5.07;;;;;;;16.60;57.78;100319.22;5012901;28;20084;-65
2023/01/13 11:10:31;;;;;;;9.88;4.90;;;;;;;16.60;57.92;100321.88;4996557;28;20093;-65
2023/01/13 11:12:58;;;;;;;10.18;6.15;;;;;;;16.60;58.01;100319.22;4993056;28;20034;-66
2023/01/13 11:15:40;;;;;;;9.90;6.00;;;;;;;16.61;58.01;100322.75;4993209;28;20088;-65
2023/01/13 11:18:50;;;;;;;10.85;6.40;;;;;;;16.59;58.05;100330.69;4993830;28;20042;-65
2023/01/13 11:21:32;;;;;;;11.68;7.13;;;;;;;16.61;57.93;100320.09;5008918;28;20046;-65
2023/01/13 11:24:09;;;;;;;12.55;7.63;;;;;;;16.62;58.01;100321.84;5009525;28;20026;-65
2023/01/13 11:27:16;;;;;;;10.90;7.13;;;;;;;16.61;57.75;100315.69;4993112;28;20026;-65
2023/01/13 11:29:50;;;;;;;11.23;6.57;;;;;;;16.62;58.09;100309.50;4895274;29;20561;-65
2023/01/13 11:32:19;;;;;;;13.18;7.93;;;;;;;16.63;57.85;100300.72;4895601;29;20293;-65
2023/01/13 11:34:51;;;;;;;10.98;6.80;;;;;;;16.62;57.92;100306.03;4898898;29;20104;-65
2023/01/13 11:37:24;;;;;;;10.90;6.80;;;;;;;16.62;58.06;100301.59;4898822;29;20040;-65
2023/01/13 11:40:12;;;;;;;11.43;6.72;;;;;;;16.63;57.90;100305.97;4910273;29;20498;-65
2023/01/13 11:42:56;;;;;;;11.25;7.25;;;;;;;16.65;57.97;100298.00;4917639;29;20517;-65
2023/01/13 11:45:40;;;;;;;11.82;7.18;;;;;;;16.64;57.88;100307.72;4917592;29;20028;-65
2023/01/13 11:48:22;;;;;;;10.20;6.78;;;;;;;16.67;57.81;100311.16;4917625;29;20511;-65
2023/01/13 11:50:58;;;;;;;12.15;6.82;;;;;;;16.64;57.77;100312.97;4917334;29;20055;-65
2023/01/13 11:53:42;;;;;;;11.85;6.40;;;;;;;16.66;58.04;100305.00;4917315;29;20528;-66
2023/01/13 11:56:27;;;;;;;9.38;6.20;;;;;;;16.67;58.11;100300.59;4917581;29;20043;-65
2023/01/13 11:59:16;;;;;;;11.25;6.30;;;;;;;16.67;57.95;100309.38;4917250;29;20040;-64
2023/01/13 12:01:59;;;;;;;8.98;5.22;;;;;;;16.68;57.79;100310.22;4916861;29;20036;-65
2023/01/13 12:04:33;;;;;;;8.23;5.25;;;;;;;16.68;58.12;100312.88;4917294;29;20211;-65
2023/01/13 12:07:17;;;;;;;10.43;5.65;;;;;;;16.69;58.11;100318.09;4996126;28;20129;-65
2023/01/13 12:10:10;;;;;;;9.40;5.15;;;;;;;16.69;57.97;100309.31;5015846;28;20038;-65
2023/01/13 12:13:01;;;;;;;8.10;4.72;;;;;;;16.69;58.01;100309.31;5014474;28;20112;-65
2023/01/13 12:16:10;;;;;;;8.38;4.90;;;;;;;16.70;58.04;100311.06;5015181;28;20041;-65
2023/01/13 12:18:38;;;;;;;8.82;5.28;;;;;;;16.70;58.09;100314.56;4950109;28;20047;-65
2023/01/13 12:21:21;;;;;;;7.97;4.90;;;;;;;16.71;57.99;100303.09;4936886;29;20051;-65
2023/01/13 12:24:21;;;;;;;8.48;5.40;;;;;;;16.71;58.11;100312.78;4935892;29;20043;-65